Accueil
METAR-TAF:

METAR-TAF

Aéroports :

Aéroport international Galileo-Galilei de Pise

Pise, Italie

latitude: 43-41N, longitude: 010-23E, altitude: 2 m

Observation

Le bulletin a été fait il y a 35 minutes, à 07:45 UTC
Vent 5 kt de sud-est
Température 8°C
Humidité 93%
Pression 1024 hPa
Visibilité 10 km ou plus
Nuages fragmentés à une hauteur de 3000 ft

METAR: LIRP 060745Z 13005KT 9999 BKN030 08/07 Q1024 NOSIG

Heure: 09:20 (08:20 UTC)

Prévision

Le bulletin a été fait il y a 3 heures et 20 minutes, à 05:00 UTC
Prévision valable du 06 à 06 UTC au 07 à 06 UTC
Vent 10 kt de est/sud-est
Visibilité 10 km ou plus
Nuages épars à une hauteur de 3000 ft
Nuages épars à une hauteur de 5000 ft
Temporairement
du 06 à 06 UTC au 07 à 06 UTC
Visibilité: 5000 m
Nuages fragmentés à une hauteur de 2500 ft
Nuages fragmentés à une hauteur de 4000 ft
pluie, brume

TAF: LIRP 060500Z 0606/0706 12010KT 9999 SCT030 SCT050 TEMPO 0606/0706 5000 RA BR BKN025 BKN040

Observations et prévisions météorologiques de plus de 4000 aéroports (messages METAR et TAF).

Les stations disponibles sont représentées par des disques jaunes et rouges sur la carte.

Passer la souris dessus pour voir le nom de la station.

Cliquer dessus pour voir les observations et prévisions météorologiques.

Pour changer de carte: cliquez sur les boutons verts avec une croix noire pour zoomer, sur le bouton vert avec un tiret pour effectuer un zoom arrière, ou sur les flèches vertes pour les cartes adjacentes.


METAR-TAF: